WEATHER DATA

YESTERDAY
Time Temp. Dewp. Hum. Wind dir Wind speed Wind gust Bar. 1h Prec. 24h Prec.
00:01 16.3 14.1 87 341 0.8 1.7 1023.3 5.5550 0.4000
00:11 16.2 14 87 338 0.3 0.8 1023.6 3.9390 0.9000
00:21 16.2 14 87 336 0.3 1.1 1023.6 3.5350 1.5000
00:30 16.1 13.8 86 336 0.3 1.1 1023.7 2.7270 1.6000
00:41 16.2 13.5 84 339 0.3 1.1 1023.6 2.6260 1.9000
00:51 16.1 13.6 85 353 0.8 1.1 1023.7 3.1310 2.9000
01:00 15.7 13.2 85 321 1.1 3.6 1024.4 3.5350 3.9000
01:11 15.2 12.5 84 336 0.3 1.4 1025 3.2320 4.1000
01:21 14.7 11.8 83 347 0.8 1.4 1024.8 2.7270 4.2000
01:31 14.4 11.6 83 343 0.8 1.7 1024.9 2.7270 4.3000
01:40 14.3 11.5 83 334 0.3 1.1 1024.9 2.4240 4.3000
01:51 14.1 11.1 82 354 0.3 1.7 1025.1 1.6160 4.5000
02:01 13.9 10.7 81 341 0.3 0.8 1025.3 0.6060 4.5000
02:11 13.9 10.7 81 329 0.3 1.1 1025.2 0.4040 4.5000
02:21 13.8 10.6 81 333 0.3 1.1 1025.2 0.3030 4.5000
02:31 13.4 10 80 315 0.3 1.4 1025.1 0.2020 4.5000
02:41 13.1 9.9 81 336 0.3 1.1 1025.1 0.2020 4.5000
02:51 13.3 10.1 81 341 0.3 0.8 1025 0.0000 4.5000
03:01 13.2 10 81 353 0.3 0.8 1025.4 0.0000 4.5000
03:11 12.9 9.7 81 7 0.3 0.8 1025.1 0.0000 4.5000
03:21 13 10 82 320 0.3 0.8 1025.2 0.0000 4.5000
03:32 13.1 10.1 82 345 0.3 1.1 1025.3 0.0000 4.5000
03:41 13 9.8 81 341 0.3 0.8 1025.3 0.0000 4.5000
04:01 12.9 9.9 82 338 0.3 1.1 1025.4 0.0000 4.5000
04:21 12.8 9.6 81 341 0.3 0.8 1025.7 0.0000 4.5000
04:31 12.6 9.2 80 351 0.8 1.1 1025.7 0.0000 4.5000
04:42 12.4 8.9 79 350 0.3 1.1 1025.8 0.0000 4.5000
04:51 12.3 9 80 335 0.3 0.8 1025.5 0.0000 4.5000
05:12 11.9 8.6 80 342 0.8 1.4 1025.8 0.0000 4.5000
05:22 11.9 8.6 80 332 0.3 0.8 1025.8 0.0000 4.5000
05:31 11.9 8.7 81 332 0.3 1.4 1025.9 0.0000 4.5000
05:41 11.9 8.7 81 344 0.3 1.1 1026 0.0000 4.5000
05:52 11.8 8.6 81 341 0.3 0.8 1025.9 0.0000 4.5000
06:02 11.8 8.6 81 320 0.3 0.8 1025.9 0.0000 4.5000
06:22 11.7 8.6 81 336 0.3 1.1 1025.7 0.0000 4.5000
06:32 11.7 8.6 81 331 0.8 1.1 1025.5 0.0000 4.5000
06:42 11.8 8.6 81 318 0.3 1.4 1025.8 0.0000 4.5000
06:51 11.8 8.5 80 334 0.3 1.1 1025.9 0.0000 4.5000
07:02 11.7 8.4 80 315 0.3 0.8 1025.8 0.0000 4.5000
07:12 11.7 8.4 80 319 0.3 1.1 1025.8 0.0000 4.5000
07:22 11.7 8.4 80 330 0.3 1.4 1025.9 0.0000 4.5000
07:32 11.8 8.5 80 339 0.3 1.4 1025.8 0.0000 4.5000
07:52 11.6 7.7 77 325 0.8 1.4 1025.8 0.0000 4.5000
08:02 11.4 7.5 77 348 0.3 1.4 1025.8 0.0000 4.5000
08:12 11.1 7 76 347 0.3 1.1 1025.7 0.0000 4.5000
08:22 11.1 7.2 77 349 0.3 2.2 1025.7 0.0000 4.5000
08:32 11.3 7.4 77 333 0.8 1.4 1025.5 0.0000 4.5000
08:52 11.6 7.7 77 334 0.8 2.2 1025.4 0.0000 4.5000
09:02 11.6 7.1 74 270 0.3 1.4 1025.2 0.0000 4.5000
09:12 11.7 7.6 76 321 0.8 2.5 1025.4 0.0000 4.5000
09:23 11.8 7.1 73 270 0.3 1.4 1025.4 0.0000 4.5000
09:33 11.8 7.3 74 230 0.3 1.4 1025.5 0.0000 4.5000
09:51 12.3 7.8 74 315 1.1 3.1 1025.7 0.0000 4.5000
10:03 12.4 7.7 73 334 0.8 2.2 1025.8 0.0000 4.5000
10:13 12.6 7.9 73 270 0.3 1.4 1025.8 0.0000 4.5000
10:23 13.1 8.4 73 340 0.8 2.2 1025.8 0.0000 4.5000
10:43 14.3 8.7 69 343 1.4 3.1 1025.9 0.0000 4.5000
10:53 14.1 8.3 68 341 1.1 2.8 1025.7 0.0000 4.5000
11:03 14.2 8.2 67 342 1.1 4.2 1025.8 0.0000 4.5000
11:13 13.9 7.9 67 337 1.4 3.6 1025.7 0.0000 4.5000
11:18 14 8.2 68 333 1.4 4.2 1026.1 0.0000 4.5000
12:07 16 9.4 65 315 1.1 3.1 1026.1 0.0000 4.5000
12:16 16.2 9.4 64 322 1.1 2.5 1026.2 0.0000 4.5000
12:26 16 9 63 334 1.4 3.6 1026.2 0.0000 4.5000
12:36 16 9.2 64 331 1.1 4.7 1026.1 0.0000 4.5000
12:47 16 9.2 64 330 1.1 2.8 1026.1 0.0000 4.5000
12:56 16.2 9.4 64 315 0.8 2.5 1025.7 0.0000 4.5000
13:06 16.8 9.2 61 334 1.1 4.2 1025.9 0.0000 4.5000
13:17 17.3 9 58 321 1.4 4.2 1025.5 0.0000 4.5000
13:27 17.3 9 58 354 1.4 3.6 1025.7 0.0000 4.5000
13:36 17 8.2 56 347 1.4 3.6 1025.9 0.0000 4.5000
13:46 16.5 8.2 58 347 1.1 3.1 1025.9 0.0000 4.5000
13:57 16.4 8.1 58 326 1.1 5 1025.9 0.0000 4.5000
14:07 16 7.8 58 336 1.1 4.2 1025.8 0.0000 4.5000
14:15 16.1 7.6 57 336 1.1 5.6 1026 0.0000 4.5000
14:25 15.7 7.5 58 333 1.4 5 1025.9 0.0000 4.5000
14:35 15.6 7.6 59 337 1.1 2.5 1025.7 0.0000 4.5000
14:45 16 8 59 333 0.8 2.2 1025.9 0.0000 4.5000
14:55 16 7.8 58 344 1.1 4.2 1025.8 0.0000 4.5000
15:05 16 7.8 58 330 1.4 4.7 1025.8 0.0000 4.5000
15:15 15.7 7.2 57 337 1.4 5 1025.9 0.0000 4.5000
15:25 15.7 7.7 59 329 1.1 3.6 1026.1 0.0000 4.5000
15:35 15.9 7.7 58 328 1.4 3.6 1026.1 0.0000 4.5000
15:45 15.9 7.7 58 334 1.1 4.2 1026.2 0.0000 4.5000
15:55 15.7 7.5 58 342 0.8 3.1 1026.3 0.0000 4.5000
16:05 15.6 7.6 59 329 1.1 3.9 1026.3 0.0000 4.5000
16:15 15.9 7.9 59 331 1.1 3.9 1026.4 0.0000 4.5000
16:25 15.7 7.5 58 338 1.4 3.6 1026.3 0.0000 4.5000
16:36 15.6 7.6 59 340 1.1 3.6 1026.5 0.0000 4.5000
16:45 15.4 7.7 60 338 0.8 3.9 1026.5 0.0000 4.5000
16:55 15.1 7.2 59 330 1.4 3.1 1026.7 0.0000 4.5000
17:06 14.9 7 59 336 1.4 5 1026.7 0.0000 4.5000
17:16 14.6 6.9 60 341 1.1 5.6 1026.7 0.0000 4.5000
17:26 14.3 6.9 61 338 1.1 3.9 1027 0.0000 4.5000
17:35 14.1 7.2 63 351 0.3 2.2 1027 0.0000 4.5000
17:46 14 7.1 63 340 1.1 3.9 1027 0.0000 4.5000
17:56 13.8 6.7 62 353 1.1 2.8 1027 0.0000 4.5000
18:06 13.6 6.5 62 354 1.1 2.2 1027.1 0.0000 4.5000
18:16 13.5 6.6 63 341 0.8 2.5 1027.1 0.0000 4.5000
18:26 13.4 6.5 63 357 0.8 1.4 1027.3 0.0000 4.5000
18:36 13.3 6.6 64 334 0.8 2.8 1027.4 0.0000 4.5000
18:46 13.1 6.2 63 348 0.8 2.2 1027.5 0.0000 4.5000
18:56 13 6.1 63 337 0.8 2.8 1027.5 0.0000 4.5000
19:06 12.9 6.3 64 3 0.3 1.1 1027.8 0.0000 4.5000
19:16 12.8 6.4 65 14 0.3 0.8 1027.8 0.0000 4.5000
19:27 12.7 6.3 65 341 0.3 1.4 1027.9 0.0000 4.5000
19:36 12.6 6.4 66 5 0.3 1.1 1027.9 0.0000 4.5000
19:46 12.5 6.3 66 0 0.3 0.8 1028 0.0000 4.5000
20:07 12.4 6.5 67 0 0.3 0.8 1027.9 0.0000 4.5000
20:16 12.3 6.4 67 336 0.3 0.8 1028 0.0000 4.5000
20:26 12.2 6 66 354 0.3 1.1 1028 0.0000 4.5000
20:37 12.2 6.3 67 351 0.3 1.4 1028 0.0000 4.5000
20:47 12.2 6.5 68 356 0.3 1.1 1028.1 0.0000 4.5000
20:56 12.1 6.4 68 6 0.3 1.1 1028.2 0.0000 4.5000
21:06 12.1 6.8 70 3 0.3 0.8 1028.2 0.0000 4.5000
21:17 12 6.7 70 344 0.3 0.8 1028.2 0.0000 4.5000
21:27 12 6.7 70 15 0.3 0.8 1028.3 0.0000 4.5000
21:36 11.9 6.8 71 23 0.3 0.8 1028.5 0.0000 4.5000
21:47 11.8 6.7 71 26 0.3 1.1 1028.5 0.0000 4.5000
21:57 11.7 6.8 72 344 0.3 0.8 1028.8 0.0000 4.5000
22:07 11.6 6.9 73 356 0.3 1.1 1028.8 0.0000 4.5000
22:17 11.6 6.7 72 357 0.3 0.8 1028.9 0.0000 4.5000
22:27 11.5 6.6 72 349 0.3 1.1 1029 0.0000 4.5000
22:37 11.4 6.7 73 341 0.3 0.8 1029 0.0000 4.5000
22:47 11.3 6.8 74 356 0.3 0.8 1029 0.0000 4.5000
22:57 11.2 6.7 74 15 0.3 0.8 1029 0.0000 4.5000
23:07 11.2 6.5 73 353 0.3 1.1 1029.1 0.0000 4.5000
23:17 11.1 6.6 74 344 0.3 1.1 1029.1 0.0000 4.5000
23:27 11 6.6 74 0 0.3 0.8 1029.2 0.0000 4.5000
23:37 11.1 6.8 75 333 0.3 0.8 1029.1 0.0000 4.5000
23:47 11 6.9 76 356 0.3 0.8 1029.2 0.0000 4.5000
23:55 11 6.9 76 350 0.3 0.8 1029.2 0.0000 4.5000

DAY STATISTIC

2018-06-22
TEMPERATURE
AVERAGE
13.5
HIGH
17.3
13:17
LOW
11.0
23:27
PRESSURE
AVERAGE
1026.4
HIGH
1029.2
23:27
LOW
1023.3
00:01
DEWPOINT
AVERAGE
8.3
HIGH
14.1
00:01
LOW
6.0
20:26
HUMIDITY
AVERAGE
71
HIGH
87
00:01
LOW
56
13:36
WIND SPEED
AVERAGE
0.7
HIGH
1.4
10:43
WIND GUST
AVERAGE
2.0
HIGH
5.6
14:15
WIND DIRECTION
PREVAILING
N
53%
N
53.0
NE
1.5
E
0.0
SE
0.0
S
0.0
SW
0.8
W
2.3
NW
42.4
PRECIPITATION
RAIN HOUR
5.6
RAIN DAY
4.5
TEMPERATURE (°C)
LOW
11.0
HIGH
17.3
AVERAGE
13.5
PRESSURE (hpa)
LOW
1023.3
HIGH
1029.2
AVERAGE
1026.4
DEVICE